Latest Coastal Weather Observations for Wyndham Airport

IDW60701

Issued at 2:53 pm WST Thursday 21 September 2017 (issued every 10 minutes, with the page automatically refreshed every 10 minutes)

About coastal observations | Map of coastal stations | Coastal observations for WA | Marine services | Other Formats
Station Details ID: 001006 Name: WYNDHAM AERO Lat: -15.51 Lon: 128.15 Height: 3.8 m
Data from the previous 72 hours. | See also: Recent months at Wyndham Airport
Date/Time
WST
Temp
°C
Wind Pressure Rain since
9am
mm
Weather Cloud Vis
km
Sea
Height
m
Swell
Dir  Spd
kts
Gust
kts
hPa Trend Height
m
Period
s
Dir
21/02:30pm 38.3 ESE 5 9 1007.9 - 0.0 - - - - - - -
21/02:00pm 38.8 E 5 9 1008.4 - 0.0 - - - - - - -
21/01:30pm 38.8 E 12 18 1008.8 - 0.0 - - - - - - -
21/01:00pm 38.6 SE 8 13 1008.9 - 0.0 - - - - - - -
21/12:30pm 38.8 ESE 11 21 1009.5 - 0.0 - - - - - - -
21/12:00pm 38.6 E 6 12 1010.0 - 0.0 - - - - - - -
21/11:30am 38.2 ENE 8 13 1010.7 - 0.0 - - - - - - -
21/11:00am 37.6 ESE 7 13 1011.3 - 0.0 - - - - - - -
21/10:30am 37.1 ENE 11 15 1011.9 - 0.0 - - - - - - -
21/10:00am 36.8 E 5 8 1012.3 - 0.0 - - - - - - -
21/09:30am 34.8 SSW 4 7 1012.7 - 0.0 - - - - - - -
21/09:00am 33.7 SSE 3 5 1013.1 - 0.0 - - - - - - -
21/08:30am 32.1 WSW 3 6 1013.2 - 0.0 - - - - - - -
21/08:00am 30.7 SW 4 6 1013.4 - 0.0 - - - - - - -
21/07:30am 29.7 WSW 4 5 1013.2 - 0.0 - - - - - - -
21/07:00am 28.1 SSW 4 6 1013.1 - 0.0 - - - - - - -
21/06:30am 26.2 SE 3 6 1012.8 - 0.0 - - - - - - -
21/06:00am 24.0 W 4 5 1012.4 - 0.0 - - - - - - -
21/05:30am 22.7 W 1 4 1012.2 - 0.0 - - - - - - -
21/05:00am 23.6 WNW 1 4 1011.9 - 0.0 - - - - - - -
21/04:30am 23.7 NNW 4 6 1011.6 - 0.0 - - - - - - -
21/04:00am 23.3 WSW 4 5 1011.3 - 0.0 - - - - - - -
21/03:30am 22.0 SW 5 6 1011.1 - 0.0 - - - - - - -
21/03:00am 22.8 WNW 3 4 1011.0 - 0.0 - - - - - - -
21/02:30am 23.6 WSW 5 6 1010.8 - 0.0 - - - - - - -
21/02:00am 21.7 NNW 1 4 1010.7 - 0.0 - - - - - - -
21/01:30am 22.5 WNW 3 5 1010.7 - 0.0 - - - - - - -
21/01:00am 22.5 S 3 5 1010.5 - 0.0 - - - - - - -
21/12:30am 23.3 ESE 6 9 1010.6 - 0.0 - - - - - - -
21/12:00am 23.3 CALM 0 0 1010.8 - 0.0 - - - - - - -
 
Date/Time
WST
Temp
°C
Wind Pressure Rain since
9am
mm
Weather Cloud Vis
km
Sea
Height
m
Swell
Dir  Spd
kts
Gust
kts
hPa Trend Height
m
Period
s
Dir
20/11:30pm 23.2 NNE 4 6 1011.0 - 0.0 - - - - - - -
20/11:00pm 24.7 E 2 4 1011.3 - 0.0 - - - - - - -
20/10:30pm 24.4 ENE 3 6 1011.2 - 0.0 - - - - - - -
20/10:00pm 26.0 ENE 4 5 1011.3 - 0.0 - - - - - - -
20/09:30pm 27.1 ESE 7 8 1011.5 - 0.0 - - - - - - -
20/09:00pm 28.1 S 7 9 1011.4 - 0.0 - - - - - - -
20/08:30pm 28.5 SSW 8 9 1011.3 - 0.0 - - - - - - -
20/08:00pm 29.3 SW 5 7 1011.2 - 0.0 - - - - - - -
20/07:30pm 30.4 N 4 6 1011.0 - 0.0 - - - - - - -
20/07:00pm 31.3 N 8 11 1010.6 - 0.0 - - - - - - -
20/06:30pm 31.6 N 8 11 1010.3 - 0.0 - - - - - - -
20/06:00pm 32.0 N 9 12 1010.1 - 0.0 - - - - - - -
20/05:30pm 32.6 N 10 13 1009.9 - 0.0 - - - - - - -
20/05:00pm 33.7 N 10 13 1009.7 - 0.0 - - - - - - -
20/04:30pm 34.7 NNW 10 13 1009.5 - 0.0 - - - - - - -
20/04:00pm 35.5 NNW 10 12 1009.4 - 0.0 - - - - - - -
20/03:30pm 36.1 NW 10 14 1009.4 - 0.0 - - - - - - -
20/03:00pm 36.5 NW 12 16 1009.4 - 0.0 - - - - - - -
20/02:30pm 36.9 NW 7 12 1009.8 - 0.0 - - - - - - -
20/02:00pm 36.9 E 6 11 1010.1 - 0.0 - - - - - - -
20/01:30pm 36.6 NNW 7 15 1010.4 - 0.0 - - - - - - -
20/01:00pm 37.4 N 7 12 1010.8 - 0.0 - - - - - - -
20/12:30pm 36.4 E 5 11 1011.4 - 0.0 - - - - - - -
20/12:00pm 36.4 NE 9 16 1012.0 - 0.0 - - - - - - -
20/11:30am 36.5 ESE 7 12 1012.4 - 0.0 - - - - - - -
20/11:00am 34.7 E 5 10 1013.0 - 0.0 - - - - - - -
20/10:30am 34.5 E 8 13 1013.4 - 0.0 - - - - - - -
20/10:00am 33.8 E 8 12 1013.8 - 0.0 - - - - - - -
20/09:30am 32.7 E 9 14 1014.3 - 0.0 - - - - - - -
20/09:00am 32.2 E 8 11 1014.6 - 0.0 - - - - - - -
20/08:30am 30.2 ESE 3 5 1014.7 - 0.0 - - - - - - -
20/08:00am 28.2 SE 4 5 1014.6 - 0.0 - - - - - - -
20/07:30am 26.2 SW 3 5 1014.5 - 0.0 - - - - - - -
20/07:00am 25.2 WNW 3 5 1014.2 - 0.0 - - - - - - -
20/06:30am 23.6 NNW 3 4 1013.8 - 0.0 - - - - - - -
20/06:00am 21.3 NW 3 4 1013.5 - 0.0 - - - - - - -
20/05:30am 19.2 NNW 3 5 1013.0 - 0.0 - - - - - - -
20/05:00am 18.7 WSW 3 4 1012.8 - 0.0 - - - - - - -
20/04:30am 17.9 WNW 5 6 1012.4 - 0.0 - - - - - - -
20/04:00am 18.1 WSW 4 5 1012.2 - 0.0 - - - - - - -
20/03:30am 18.2 WNW 4 5 1011.8 - 0.0 - - - - - - -
20/03:00am 20.6 CALM 0 0 1011.5 - 0.0 - - - - - - -
20/02:30am 19.5 NNW 5 7 1011.6 - 0.0 - - - - - - -
20/02:00am 19.3 NW 5 6 1011.6 - 0.0 - - - - - - -
20/01:30am 20.0 NW 5 5 1011.5 - 0.0 - - - - - - -
20/01:00am 19.9 WSW 3 4 1011.6 - 0.0 - - - - - - -
20/12:30am 19.8 CALM 0 0 1011.7 - 0.0 - - - - - - -
20/12:00am 20.0 WNW 4 7 1011.9 - 0.0 - - - - - - -
 
Date/Time
WST
Temp
°C
Wind Pressure Rain since
9am
mm
Weather Cloud Vis
km
Sea
Height
m
Swell
Dir  Spd
kts
Gust
kts
hPa Trend Height
m
Period
s
Dir
19/11:30pm 20.8 NW 3 4 1011.9 - 0.0 - - - - - - -
19/11:00pm 20.3 N 3 4 1012.2 - 0.0 - - - - - - -
19/10:30pm 21.0 CALM 0 0 1012.5 - 0.0 - - - - - - -
19/10:00pm 21.0 NNE 1 4 1012.7 - 0.0 - - - - - - -
19/09:30pm 21.3 CALM 0 0 1012.9 - 0.0 - - - - - - -
19/09:00pm 22.1 E 2 4 1013.0 - 0.0 - - - - - - -
19/08:30pm 23.3 ENE 3 5 1012.9 - 0.0 - - - - - - -
19/08:00pm 25.7 S 6 7 1012.7 - 0.0 - - - - - - -
19/07:30pm 27.1 SSW 7 9 1012.2 - 0.0 - - - - - - -
19/07:00pm 27.9 WNW 5 6 1011.8 - 0.0 - - - - - - -
19/06:30pm 29.3 NW 7 8 1011.5 - 0.0 - - - - - - -
19/06:00pm 30.2 NNW 6 8 1011.2 - 0.0 - - - - - - -
19/05:30pm 31.4 N 9 13 1010.9 - 0.0 - - - - - - -
19/05:00pm 33.1 N 6 9 1010.5 - 0.0 - - - - - - -
19/04:30pm 35.9 ENE 8 11 1010.2 - 0.0 - - - - - - -
19/04:00pm 36.7 ENE 9 12 1010.0 - 0.0 - - - - - - -
19/03:30pm 37.3 ENE 12 15 1010.0 - 0.0 - - - - - - -
19/03:00pm 38.0 E 11 18 1010.1 - 0.0 - - - - - - -
19/02:30pm 38.3 ENE 9 15 1010.1 - 0.0 - - - - - - -
19/02:00pm 38.0 E 11 17 1010.4 - 0.0 - - - - - - -
19/01:30pm 37.7 E 13 22 1010.8 - 0.0 - - - - - - -
19/01:00pm 37.9 ESE 13 22 1011.3 - 0.0 - - - - - - -
19/12:30pm 37.6 ESE 14 20 1011.7 - 0.0 - - - - - - -
19/12:00pm 37.8 E 13 19 1012.2 - 0.0 - - - - - - -
19/11:30am 37.5 E 15 22 1012.7 - 0.0 - - - - - - -
19/11:00am 37.5 E 15 24 1013.3 - 0.0 - - - - - - -
19/10:30am 36.9 ESE 16 22 1014.0 - 0.0 - - - - - - -
19/10:00am 35.7 ESE 16 23 1014.5 - 0.0 - - - - - - -
19/09:30am 34.8 E 11 15 1014.9 - 0.0 - - - - - - -
19/09:00am 31.9 WSW 5 7 1015.3 - 0.0 - - - - - - -
19/08:30am 29.2 SW 4 6 1015.6 - 0.0 - - - - - - -
19/08:00am 27.1 SSW 6 8 1015.7 - 0.0 - - - - - - -
19/07:30am 25.7 SSW 7 9 1015.4 - 0.0 - - - - - - -
19/07:00am 24.1 SSW 5 8 1015.2 - 0.0 - - - - - - -
19/06:30am 21.0 W 4 6 1015.0 - 0.0 - - - - - - -
19/06:00am 18.6 WNW 3 4 1014.9 - 0.0 - - - - - - -
19/05:30am 16.7 W 3 3 1014.5 - 0.0 - - - - - - -
19/05:00am 19.6 WSW 4 5 1014.1 - 0.0 - - - - - - -
19/04:30am 16.3 WNW 5 6 1013.9 - 0.0 - - - - - - -
19/04:00am 18.3 NNW 5 6 1013.5 - 0.0 - - - - - - -
19/03:30am 18.5 NNW 5 6 1013.2 - 0.0 - - - - - - -
19/03:00am 19.9 SW 3 5 1013.1 - 0.0 - - - - - - -
19/02:30am 19.9 WSW 3 5 1013.1 - 0.0 - - - - - - -
19/02:00am 19.1 W 3 6 1013.1 - 0.0 - - - - - - -
19/01:30am 16.9 NW 3 4 1013.2 - 0.0 - - - - - - -
19/01:00am 16.3 SW 4 5 1013.4 - 0.0 - - - - - - -
19/12:30am 16.0 CALM 0 3 1013.6 - 0.0 - - - - - - -
19/12:00am 16.7 CALM 0 0 1013.9 - 0.0 - - - - - - -
 
Date/Time
WST
Temp
°C
Wind Pressure Rain since
9am
mm
Weather Cloud Vis
km
Sea
Height
m
Swell
Dir  Spd
kts
Gust
kts
hPa Trend Height
m
Period
s
Dir
18/11:30pm 16.7 CALM 0 0 1014.2 - 0.0 - - - - - - -
18/11:00pm 17.2 CALM 0 0 1014.5 - 0.0 - - - - - - -
18/10:30pm 19.0 CALM 0 0 1014.7 - 0.0 - - - - - - -
18/10:00pm 20.2 CALM 0 0 1014.7 - 0.0 - - - - - - -
18/09:30pm 20.5 SW 2 4 1014.6 - 0.0 - - - - - - -
18/09:00pm 21.1 CALM 0 0 1014.6 - 0.0 - - - - - - -
18/08:30pm 22.2 SW 1 3 1014.4 - 0.0 - - - - - - -
18/08:00pm 23.1 WSW 4 5 1014.3 - 0.0 - - - - - - -
18/07:30pm 25.9 WNW 2 4 1013.9 - 0.0 - - - - - - -
18/07:00pm 28.6 N 3 4 1013.6 - 0.0 - - - - - - -
18/06:30pm 27.6 NE 5 7 1013.3 - 0.0 - - - - - - -
18/06:00pm 29.1 ESE 7 8 1012.8 - 0.0 - - - - - - -
18/05:30pm 30.4 ESE 7 10 1012.3 - 0.0 - - - - - - -
18/05:00pm 33.7 SE 8 11 1011.8 - 0.0 - - - - - - -
18/04:30pm 35.6 ESE 8 10 1011.4 - 0.0 - - - - - - -
18/04:00pm 36.4 SE 11 15 1011.3 - 0.0 - - - - - - -
18/03:30pm 37.0 ESE 8 12 1011.2 - 0.0 - - - - - - -
18/03:00pm 37.2 ENE 9 14 1011.3 - 0.0 - - - - - - -

Other Formats:

Comma delimited format used in spreadsheet applications
http://www.bom.gov.au/fwo/IDW60701/IDW60701.95214.axf

JavaScript Object Notation format (JSON) in row-major order
http://www.bom.gov.au/fwo/IDW60701/IDW60701.95214.json